AGROMETEOROLOŠKI PORTAL

vinorodna pokrajina

Temelj dobrega kmetovanja

Pregled podatkov za lokacijo Kovor, meteorološka postaja 37929

Pregled senzorjev na lokaciji

ID Ime Zadnja
vrednost
Datum in čas
meritve
(lokalni čas)
Tip
senzorja
5025 Omočenost lista (1,5 m) (U) 10 U 25.9.2022 21:30 A730WET
5072 Padavine (mm) 3 mm 25.9.2022 21:30 Generic 0.2 mm
5021 Relativna zračna vlaga (2 m) (%RH) 99 %RH 25.9.2022 21:30 50YA
5024 Relativna zračna vlaga (20 cm) (%RH) 100 %RH 25.9.2022 21:30 50YA
5026 Temperatura tal (5 cm) (°C) 14,2 °C 25.9.2022 21:30 99TG411E
5020 Temperatura (2 m) (°C) 11,6 °C 25.9.2022 21:30 50YA
5023 Temperatura (20 cm) (°C) 11,6 °C 25.9.2022 21:30 50YA

Pregled podatkov zadnjih 24 ur

Zap.
št.
Datum in čas
(lokalni čas)
Kovor
Omočenost
lista
(1,5
m)
Padavine Relativna
zračna
vlaga
(2
m)
Relativna
zračna
vlaga
(20
cm)
Temperatura
tal
(5
cm)
Temperatura
(2
m)
Temperatura
(20
cm)
1 25.9.2022 21:30 10 3 99,3 99,9 14,2 11,6 11,6
2 25.9.2022 21:00 10 3 99,3 99,9 14,2 11,6 11,5
3 25.9.2022 20:30 10 3 99,3 99,9 14,2 11,6 11,5
4 25.9.2022 20:00 10 3 99,1 99,9 14,1 11,6 11,6
5 25.9.2022 19:30 10 3 99 99,9 14,1 11,6 11,6
6 25.9.2022 19:00 10 3 98,9 99,9 14,1 11,6 11,6
7 25.9.2022 18:30 10 3 98,6 99,9 14,1 11,9 11,9
8 25.9.2022 18:00 10 3 98,3 99,9 14,1 12,1 12,1
9 25.9.2022 17:30 9 3 98,2 99,9 14,1 12,1 12,2
10 25.9.2022 17:00 10 3 97,9 99,9 14 12,1 12,3
11 25.9.2022 16:30 10 3 97,9 99,9 14 12,3 12,7
12 25.9.2022 16:00 10 3 97,9 99,9 14 12,2 12,5
13 25.9.2022 15:30 9 3 98,2 99,9 13,9 12,4 12,8
14 25.9.2022 15:00 10 3 98,8 99,9 13,9 12,7 13,1
15 25.9.2022 14:30 10 3 99 99,9 13,9 12,1 12,7
16 25.9.2022 14:00 10 3 99,2 99,9 13,8 11,8 12,4
17 25.9.2022 13:30 10 3 99,3 99,9 13,8 11,4 11,9
18 25.9.2022 13:00 10 3 99,4 99,9 13,8 11,3 11,8
19 25.9.2022 12:30 10 3 99,5 99,9 13,8 11,1 11,4
20 25.9.2022 12:00 10 3,2 99,3 99,9 13,8 10,8 11,2
21 25.9.2022 11:30 10 3 99,3 99,9 13,8 10,9 11,2
22 25.9.2022 11:00 10 3 99,2 99,9 13,9 10,9 11,1
23 25.9.2022 10:30 10 1,6 99,2 99,9 13,9 10,9 11
24 25.9.2022 10:00 10 2,6 99,2 99,9 13,9 11,1 11,1
25 25.9.2022 09:30 10 3,2 99,1 99,9 14 11,2 11,2
26 25.9.2022 09:00 10 3 99 99,9 14 11,2 11,3
27 25.9.2022 08:30 10 3 98,9 99,9 14 11,2 11,2
28 25.9.2022 08:00 10 1,4 98,8 99,9 14 11,2 11,1
29 25.9.2022 07:30 10 1,6 98,5 99,9 14 11,2 11,1
30 25.9.2022 07:00 10 2,6 98,4 99,9 14,1 11,2 11
31 25.9.2022 06:30 10 3 98,1 99,9 14,1 11,2 11
32 25.9.2022 06:00 10 3 98 99,9 14,1 11,2 11
33 25.9.2022 05:30 10 3 97,8 99,9 14,1 11,1 11
34 25.9.2022 05:00 10 3 97,5 99,9 14,1 11 10,8
35 25.9.2022 04:30 10 3 97,3 99,9 14,1 11 10,8
36 25.9.2022 04:00 10 3 96,8 99,9 14,1 11 10,9
37 25.9.2022 03:30 10 3 96,7 99,9 14,1 11,1 11,1
38 25.9.2022 03:00 10 3 96,3 99,8 14,1 11,1 11,1
39 25.9.2022 02:30 10 3 95,2 99,3 14,1 11 11
40 25.9.2022 02:00 10 3 95 98,9 14,1 11 10,9
41 25.9.2022 01:30 10 3 95,2 98,7 14,1 11,2 11,1
42 25.9.2022 01:00 10 3 94,4 97,8 14,2 11,4 11,3
43 25.9.2022 00:30 10 3 89,5 93,8 14,2 11,8 11,5
44 25.9.2022 00:00 10 3 84,3 90,6 14,2 11,9 11,3
45 24.9.2022 23:30 6 3 85 91 14,2 11,6 11,2
46 24.9.2022 23:00 4 3 84,5 90,6 14,2 11,7 11,2